sensor_id;sensor_type;location;lat;lon;timestamp;pressure;altitude;pressure_sealevel;temperature;humidity
46942;BME280;32676;52.630;4.896;2023-05-03T00:00:24;100239.81;;;7.58;72.23
46942;BME280;32676;52.630;4.896;2023-05-03T00:02:51;100228.50;;;7.58;72.34
46942;BME280;32676;52.630;4.896;2023-05-03T00:05:18;100232.06;;;7.57;72.45
46942;BME280;32676;52.630;4.896;2023-05-03T00:07:45;100223.31;;;7.56;72.64
46942;BME280;32676;52.630;4.896;2023-05-03T00:10:11;100242.34;;;7.61;72.49
46942;BME280;32676;52.630;4.896;2023-05-03T00:12:40;100257.16;;;7.62;72.53
46942;BME280;32676;52.630;4.896;2023-05-03T00:15:08;100256.28;;;7.62;72.46
46942;BME280;32676;52.630;4.896;2023-05-03T00:17:35;100261.50;;;7.62;72.47
46942;BME280;32676;52.630;4.896;2023-05-03T00:20:01;100261.50;;;7.62;72.27
46942;BME280;32676;52.630;4.896;2023-05-03T00:22:28;100258.94;;;7.60;71.98
46942;BME280;32676;52.630;4.896;2023-05-03T00:24:54;100247.63;;;7.60;71.82
46942;BME280;32676;52.630;4.896;2023-05-03T00:27:21;100262.38;;;7.62;71.69
46942;BME280;32676;52.630;4.896;2023-05-03T00:29:48;100262.38;;;7.62;71.35
46942;BME280;32676;52.630;4.896;2023-05-03T00:32:16;100268.50;;;7.61;71.07
46942;BME280;32676;52.630;4.896;2023-05-03T00:34:43;100271.91;;;7.63;70.57
46942;BME280;32676;52.630;4.896;2023-05-03T00:37:09;100305.75;;;7.69;70.16
46942;BME280;32676;52.630;4.896;2023-05-03T00:39:35;100309.19;;;7.72;69.98
46942;BME280;32676;52.630;4.896;2023-05-03T00:42:02;100314.41;;;7.72;70.06
46942;BME280;32676;52.630;4.896;2023-05-03T00:44:29;100310.06;;;7.71;69.97
46942;BME280;32676;52.630;4.896;2023-05-03T00:46:55;100289.22;;;7.67;70.04
46942;BME280;32676;52.630;4.896;2023-05-03T00:49:24;100284.09;;;7.64;70.00
46942;BME280;32676;52.630;4.896;2023-05-03T00:51:50;100272.84;;;7.62;70.20
46942;BME280;32676;52.630;4.896;2023-05-03T00:54:18;100278.97;;;7.61;70.11
46942;BME280;32676;52.630;4.896;2023-05-03T00:56:45;100280.69;;;7.62;69.69
46942;BME280;32676;52.630;4.896;2023-05-03T00:59:11;100289.34;;;7.64;69.53
46942;BME280;32676;52.630;4.896;2023-05-03T01:01:38;100288.53;;;7.62;69.26
46942;BME280;32676;52.630;4.896;2023-05-03T01:04:04;100285.00;;;7.63;69.02
46942;BME280;32676;52.630;4.896;2023-05-03T01:06:34;100291.97;;;7.64;68.80
46942;BME280;32676;52.630;4.896;2023-05-03T01:09:06;100305.00;;;7.66;68.91
46942;BME280;32676;52.630;4.896;2023-05-03T01:11:38;100305.00;;;7.66;68.82
46942;BME280;32676;52.630;4.896;2023-05-03T01:14:09;100302.41;;;7.64;68.80
46942;BME280;32676;52.630;4.896;2023-05-03T01:16:44;100295.47;;;7.63;68.79
46942;BME280;32676;52.630;4.896;2023-05-03T01:19:14;100292.88;;;7.62;68.78
46942;BME280;32676;52.630;4.896;2023-05-03T01:21:45;100290.31;;;7.60;68.76
46942;BME280;32676;52.630;4.896;2023-05-03T01:24:16;100288.59;;;7.59;68.94
46942;BME280;32676;52.630;4.896;2023-05-03T01:26:45;100281.66;;;7.58;69.17
46942;BME280;32676;52.630;4.896;2023-05-03T01:29:11;100279.97;;;7.57;69.03
46942;BME280;32676;52.630;4.896;2023-05-03T01:31:38;100259.97;;;7.55;68.82
46942;BME280;32676;52.630;4.896;2023-05-03T01:34:11;100234.97;;;7.46;68.91
46942;BME280;32676;52.630;4.896;2023-05-03T01:36:39;100205.56;;;7.38;68.95
46942;BME280;32676;52.630;4.896;2023-05-03T01:39:09;100200.44;;;7.35;68.81
46942;BME280;32676;52.630;4.896;2023-05-03T01:41:37;100186.56;;;7.33;68.73
46942;BME280;32676;52.630;4.896;2023-05-03T01:44:07;100176.22;;;7.29;68.69
46942;BME280;32676;52.630;4.896;2023-05-03T01:46:34;100176.22;;;7.29;68.85
46942;BME280;32676;52.630;4.896;2023-05-03T01:49:06;100171.91;;;7.27;68.92
46942;BME280;32676;52.630;4.896;2023-05-03T01:51:32;100148.56;;;7.22;68.85
46942;BME280;32676;52.630;4.896;2023-05-03T01:53:59;100140.78;;;7.19;68.61
46942;BME280;32676;52.630;4.896;2023-05-03T01:56:25;100126.03;;;7.17;68.51
46942;BME280;32676;52.630;4.896;2023-05-03T01:58:51;100126.13;;;7.15;68.42
46942;BME280;32676;52.630;4.896;2023-05-03T02:01:19;100113.97;;;7.13;68.37
46942;BME280;32676;52.630;4.896;2023-05-03T02:03:45;100096.72;;;7.07;68.43
46942;BME280;32676;52.630;4.896;2023-05-03T02:06:12;100084.66;;;7.03;68.45
46942;BME280;32676;52.630;4.896;2023-05-03T02:08:38;100072.63;;;6.99;68.40
46942;BME280;32676;52.630;4.896;2023-05-03T02:11:04;100067.38;;;6.99;68.36
46942;BME280;32676;52.630;4.896;2023-05-03T02:13:31;100079.53;;;7.00;68.29
46942;BME280;32676;52.630;4.896;2023-05-03T02:15:58;100073.41;;;7.01;68.04
46942;BME280;32676;52.630;4.896;2023-05-03T02:18:26;100061.31;;;6.97;68.08
46942;BME280;32676;52.630;4.896;2023-05-03T02:20:55;100058.78;;;6.95;68.05
46942;BME280;32676;52.630;4.896;2023-05-03T02:23:21;100060.53;;;6.95;68.01
46942;BME280;32676;52.630;4.896;2023-05-03T02:25:48;100043.25;;;6.90;67.97
46942;BME280;32676;52.630;4.896;2023-05-03T02:28:14;100010.38;;;6.83;67.89
46942;BME280;32676;52.630;4.896;2023-05-03T02:30:41;100007.81;;;6.82;67.97
46942;BME280;32676;52.630;4.896;2023-05-03T02:33:07;99987.97;;;6.76;68.06
46942;BME280;32676;52.630;4.896;2023-05-03T02:35:35;99972.38;;;6.73;68.00
46942;BME280;32676;52.630;4.896;2023-05-03T02:38:01;99964.66;;;6.70;68.01
46942;BME280;32676;52.630;4.896;2023-05-03T02:40:28;99962.94;;;6.69;68.11
46942;BME280;32676;52.630;4.896;2023-05-03T02:42:54;99981.13;;;6.72;68.05
46942;BME280;32676;52.630;4.896;2023-05-03T02:45:20;99995.00;;;6.74;67.94
46942;BME280;32676;52.630;4.896;2023-05-03T02:47:47;99988.97;;;6.72;68.00
46942;BME280;32676;52.630;4.896;2023-05-03T02:50:13;99979.41;;;6.71;68.08
46942;BME280;32676;52.630;4.896;2023-05-03T02:52:41;99969.09;;;6.68;68.10
46942;BME280;32676;52.630;4.896;2023-05-03T02:55:08;99953.50;;;6.65;68.25
46942;BME280;32676;52.630;4.896;2023-05-03T02:57:34;99940.53;;;6.62;68.20
46942;BME280;32676;52.630;4.896;2023-05-03T03:00:00;99941.44;;;6.61;68.31
46942;BME280;32676;52.630;4.896;2023-05-03T03:02:28;99933.69;;;6.58;68.60
46942;BME280;32676;52.630;4.896;2023-05-03T03:04:55;99922.47;;;6.56;68.52
46942;BME280;32676;52.630;4.896;2023-05-03T03:07:21;99923.31;;;6.56;68.48
46942;BME280;32676;52.630;4.896;2023-05-03T03:09:49;99925.06;;;6.56;68.43
46942;BME280;32676;52.630;4.896;2023-05-03T03:12:18;99929.38;;;6.57;68.24
46942;BME280;32676;52.630;4.896;2023-05-03T03:14:44;99932.91;;;6.56;68.27
46942;BME280;32676;52.630;4.896;2023-05-03T03:17:11;99929.38;;;6.57;68.24
46942;BME280;32676;52.630;4.896;2023-05-03T03:19:37;99921.63;;;6.55;68.37
46942;BME280;32676;52.630;4.896;2023-05-03T03:22:03;99913.03;;;6.51;68.60
46942;BME280;32676;52.630;4.896;2023-05-03T03:24:30;99890.56;;;6.46;68.82
46942;BME280;32676;52.630;4.896;2023-05-03T03:26:58;99882.88;;;6.41;68.85
46942;BME280;32676;52.630;4.896;2023-05-03T03:29:24;99865.63;;;6.37;68.85
46942;BME280;32676;52.630;4.896;2023-05-03T03:31:52;99846.63;;;6.32;68.88
46942;BME280;32676;52.630;4.896;2023-05-03T03:34:18;99812.09;;;6.24;68.84
46942;BME280;32676;52.630;4.896;2023-05-03T03:36:44;99775.00;;;6.14;69.38
46942;BME280;32676;52.630;4.896;2023-05-03T03:39:10;99760.31;;;6.11;69.23
46942;BME280;32676;52.630;4.896;2023-05-03T03:41:37;99745.66;;;6.07;69.61
46942;BME280;32676;52.630;4.896;2023-05-03T03:44:04;99729.31;;;6.02;69.58
46942;BME280;32676;52.630;4.896;2023-05-03T03:46:31;99725.88;;;6.00;69.90
46942;BME280;32676;52.630;4.896;2023-05-03T03:48:57;99725.88;;;6.00;69.80
46942;BME280;32676;52.630;4.896;2023-05-03T03:51:23;99729.41;;;5.99;69.91
46942;BME280;32676;52.630;4.896;2023-05-03T03:53:50;99725.88;;;6.00;70.01
46942;BME280;32676;52.630;4.896;2023-05-03T03:56:17;99727.69;;;5.98;70.01
46942;BME280;32676;52.630;4.896;2023-05-03T03:58:43;99725.97;;;5.99;70.00
46942;BME280;32676;52.630;4.896;2023-05-03T04:01:11;99722.47;;;5.98;70.05
46942;BME280;32676;52.630;4.896;2023-05-03T04:03:37;99726.00;;;5.97;70.01
46942;BME280;32676;52.630;4.896;2023-05-03T04:06:04;99717.34;;;5.95;69.95
46942;BME280;32676;52.630;4.896;2023-05-03T04:08:30;99700.06;;;5.91;70.24
46942;BME280;32676;52.630;4.896;2023-05-03T04:10:56;99684.53;;;5.88;70.32
46942;BME280;32676;52.630;4.896;2023-05-03T04:13:23;99675.09;;;5.84;70.52
46942;BME280;32676;52.630;4.896;2023-05-03T04:15:52;99667.38;;;5.81;70.78
46942;BME280;32676;52.630;4.896;2023-05-03T04:18:20;99665.59;;;5.83;70.95
46942;BME280;32676;52.630;4.896;2023-05-03T04:20:47;99691.50;;;5.87;71.22
46942;BME280;32676;52.630;4.896;2023-05-03T04:23:13;99701.03;;;5.88;71.31
46942;BME280;32676;52.630;4.896;2023-05-03T04:25:42;99697.56;;;5.88;71.33
46942;BME280;32676;52.630;4.896;2023-05-03T04:28:10;99710.50;;;5.91;71.40
46942;BME280;32676;52.630;4.896;2023-05-03T04:30:37;99732.09;;;5.94;71.54
46942;BME280;32676;52.630;4.896;2023-05-03T04:33:03;99739.84;;;5.99;71.56
46942;BME280;32676;52.630;4.896;2023-05-03T04:35:33;99755.41;;;6.02;71.68
46942;BME280;32676;52.630;4.896;2023-05-03T04:38:00;99783.09;;;6.06;71.53
46942;BME280;32676;52.630;4.896;2023-05-03T04:40:28;99802.91;;;6.12;71.42
46942;BME280;32676;52.630;4.896;2023-05-03T04:42:54;99809.88;;;6.11;71.33
46942;BME280;32676;52.630;4.896;2023-05-03T04:45:22;99841.75;;;6.21;71.28
46942;BME280;32676;52.630;4.896;2023-05-03T04:47:52;99876.34;;;6.28;71.25
46942;BME280;32676;52.630;4.896;2023-05-03T04:50:18;99901.34;;;6.35;71.19
46942;BME280;32676;52.630;4.896;2023-05-03T04:52:46;99916.03;;;6.38;71.02
46942;BME280;32676;52.630;4.896;2023-05-03T04:55:12;99942.00;;;6.42;71.01
46942;BME280;32676;52.630;4.896;2023-05-03T04:57:39;99948.03;;;6.44;70.93
46942;BME280;32676;52.630;4.896;2023-05-03T05:00:05;99952.34;;;6.45;71.24
46942;BME280;32676;52.630;4.896;2023-05-03T05:02:35;99971.31;;;6.50;71.37
46942;BME280;32676;52.630;4.896;2023-05-03T05:05:01;99989.47;;;6.55;71.43
46942;BME280;32676;52.630;4.896;2023-05-03T05:07:29;100018.84;;;6.62;71.49
46942;BME280;32676;52.630;4.896;2023-05-03T05:09:57;100043.06;;;6.67;71.65
46942;BME280;32676;52.630;4.896;2023-05-03T05:12:23;100057.72;;;6.71;71.57
46942;BME280;32676;52.630;4.896;2023-05-03T05:14:50;100095.81;;;6.78;71.49
46942;BME280;32676;52.630;4.896;2023-05-03T05:17:16;100118.25;;;6.85;71.47
46942;BME280;32676;52.630;4.896;2023-05-03T05:19:42;100143.34;;;6.91;71.45
46942;BME280;32676;52.630;4.896;2023-05-03T05:22:09;100173.56;;;7.00;71.30
46942;BME280;32676;52.630;4.896;2023-05-03T05:24:35;100210.78;;;7.08;70.99
46942;BME280;32676;52.630;4.896;2023-05-03T05:27:03;100244.56;;;7.14;70.78
46942;BME280;32676;52.630;4.896;2023-05-03T05:29:30;100266.19;;;7.21;70.77
46942;BME280;32676;52.630;4.896;2023-05-03T05:31:56;100300.78;;;7.29;70.33
46942;BME280;32676;52.630;4.896;2023-05-03T05:34:23;100332.84;;;7.36;69.75
46942;BME280;32676;52.630;4.896;2023-05-03T05:36:50;100359.69;;;7.42;69.24
46942;BME280;32676;52.630;4.896;2023-05-03T05:39:17;100384.75;;;7.49;68.85
46942;BME280;32676;52.630;4.896;2023-05-03T05:41:43;100424.63;;;7.58;68.48
46942;BME280;32676;52.630;4.896;2023-05-03T05:44:11;100452.28;;;7.66;68.31
46942;BME280;32676;52.630;4.896;2023-05-03T05:46:37;100483.50;;;7.73;68.23
46942;BME280;32676;52.630;4.896;2023-05-03T05:49:04;100523.41;;;7.81;68.23
46942;BME280;32676;52.630;4.896;2023-05-03T05:51:30;100562.41;;;7.90;68.22
46942;BME280;32676;52.630;4.896;2023-05-03T05:53:57;100594.44;;;7.98;68.08
46942;BME280;32676;52.630;4.896;2023-05-03T05:56:23;100627.41;;;8.05;68.08
46942;BME280;32676;52.630;4.896;2023-05-03T05:58:50;100674.22;;;8.18;67.89
46942;BME280;32676;52.630;4.896;2023-05-03T06:01:18;100754.91;;;8.36;67.58
46942;BME280;32676;52.630;4.896;2023-05-03T06:03:44;100799.16;;;8.49;66.99
46942;BME280;32676;52.630;4.896;2023-05-03T06:06:10;100841.75;;;8.57;66.69
46942;BME280;32676;52.630;4.896;2023-05-03T06:08:37;100885.13;;;8.69;66.39
46942;BME280;32676;52.630;4.896;2023-05-03T06:11:03;100914.66;;;8.75;65.75
46942;BME280;32676;52.630;4.896;2023-05-03T06:13:29;100921.59;;;8.76;65.50
46942;BME280;32676;52.630;4.896;2023-05-03T06:15:58;100935.53;;;8.78;64.64
46942;BME280;32676;52.630;4.896;2023-05-03T06:18:26;100943.31;;;8.81;64.21
46942;BME280;32676;52.630;4.896;2023-05-03T06:20:52;100974.63;;;8.88;64.06
46942;BME280;32676;52.630;4.896;2023-05-03T06:23:18;101036.34;;;9.02;63.94
46942;BME280;32676;52.630;4.896;2023-05-03T06:25:45;101064.97;;;9.10;63.52
46942;BME280;32676;52.630;4.896;2023-05-03T06:28:11;101106.72;;;9.19;62.92
46942;BME280;32676;52.630;4.896;2023-05-03T06:30:38;101128.50;;;9.23;62.59
46942;BME280;32676;52.630;4.896;2023-05-03T06:33:04;101141.50;;;9.28;62.59
46942;BME280;32676;52.630;4.896;2023-05-03T06:35:32;101155.47;;;9.30;62.25
46942;BME280;32676;52.630;4.896;2023-05-03T06:37:58;101164.16;;;9.32;62.23
46942;BME280;32676;52.630;4.896;2023-05-03T06:40:24;101165.84;;;9.33;62.21
46942;BME280;32676;52.630;4.896;2023-05-03T06:42:51;101181.53;;;9.36;62.34
46942;BME280;32676;52.630;4.896;2023-05-03T06:45:17;101186.78;;;9.36;62.15
46942;BME280;32676;52.630;4.896;2023-05-03T06:47:44;101220.72;;;9.44;62.44
46942;BME280;32676;52.630;4.896;2023-05-03T06:50:11;101229.41;;;9.46;62.40
46942;BME280;32676;52.630;4.896;2023-05-03T06:52:39;101235.44;;;9.49;62.26
46942;BME280;32676;52.630;4.896;2023-05-03T06:55:06;101252.00;;;9.51;62.06
46942;BME280;32676;52.630;4.896;2023-05-03T06:57:32;101258.13;;;9.53;61.93
46942;BME280;32676;52.630;4.896;2023-05-03T06:59:59;101274.69;;;9.55;61.89
46942;BME280;32676;52.630;4.896;2023-05-03T07:02:25;101275.53;;;9.57;61.58
46942;BME280;32676;52.630;4.896;2023-05-03T07:04:51;101279.00;;;9.58;61.87
46942;BME280;32676;52.630;4.896;2023-05-03T07:07:18;101265.06;;;9.54;61.51
46942;BME280;32676;52.630;4.896;2023-05-03T07:09:45;101265.06;;;9.54;60.78
46942;BME280;32676;52.630;4.896;2023-05-03T07:12:12;101289.47;;;9.59;60.86
46942;BME280;32676;52.630;4.896;2023-05-03T07:14:38;101322.56;;;9.67;60.77
46942;BME280;32676;52.630;4.896;2023-05-03T07:17:05;101334.72;;;9.71;60.18
46942;BME280;32676;52.630;4.896;2023-05-03T07:19:31;101342.56;;;9.72;59.45
46942;BME280;32676;52.630;4.896;2023-05-03T07:21:57;101358.22;;;9.77;59.36
46942;BME280;32676;52.630;4.896;2023-05-03T07:24:24;101373.88;;;9.80;59.46
46942;BME280;32676;52.630;4.896;2023-05-03T07:26:52;101402.66;;;9.86;59.61
46942;BME280;32676;52.630;4.896;2023-05-03T07:29:18;101441.00;;;9.93;59.88
46942;BME280;32676;52.630;4.896;2023-05-03T07:31:45;101446.19;;;9.96;59.51
46942;BME280;32676;52.630;4.896;2023-05-03T07:34:16;101459.28;;;9.98;59.39
46942;BME280;32676;52.630;4.896;2023-05-03T07:36:46;101472.34;;;10.03;59.19
46942;BME280;32676;52.630;4.896;2023-05-03T07:39:12;101488.00;;;10.06;59.31
46942;BME280;32676;52.630;4.896;2023-05-03T07:41:38;101522.88;;;10.14;59.03
46942;BME280;32676;52.630;4.896;2023-05-03T07:44:06;101542.03;;;10.19;59.09
46942;BME280;32676;52.630;4.896;2023-05-03T07:46:32;101576.06;;;10.25;59.04
46942;BME280;32676;52.630;4.896;2023-05-03T07:48:59;101592.59;;;10.30;58.61
46942;BME280;32676;52.630;4.896;2023-05-03T07:51:25;101589.97;;;10.30;58.20
46942;BME280;32676;52.630;4.896;2023-05-03T07:53:52;101617.06;;;10.35;57.97
46942;BME280;32676;52.630;4.896;2023-05-03T07:56:19;101625.78;;;10.37;57.82
46942;BME280;32676;52.630;4.896;2023-05-03T07:58:45;101619.69;;;10.35;57.59
46942;BME280;32676;52.630;4.896;2023-05-03T08:01:12;101631.88;;;10.40;57.51
46942;BME280;32676;52.630;4.896;2023-05-03T08:03:39;101689.44;;;10.52;57.08
46942;BME280;32676;52.630;4.896;2023-05-03T08:06:07;101732.16;;;10.63;56.96
46942;BME280;32676;52.630;4.896;2023-05-03T08:08:33;101754.88;;;10.67;56.97
46942;BME280;32676;52.630;4.896;2023-05-03T08:11:00;101770.59;;;10.70;56.72
46942;BME280;32676;52.630;4.896;2023-05-03T08:13:26;101790.66;;;10.76;56.80
46942;BME280;32676;52.630;4.896;2023-05-03T08:15:53;101789.78;;;10.75;56.82
46942;BME280;32676;52.630;4.896;2023-05-03T08:18:20;101795.03;;;10.75;56.43
46942;BME280;32676;52.630;4.896;2023-05-03T08:20:47;101822.97;;;10.83;56.19
46942;BME280;32676;52.630;4.896;2023-05-03T08:23:13;101839.53;;;10.88;56.35
46942;BME280;32676;52.630;4.896;2023-05-03T08:25:40;101848.28;;;10.88;55.93
46942;BME280;32676;52.630;4.896;2023-05-03T08:28:07;101866.59;;;10.93;55.77
46942;BME280;32676;52.630;4.896;2023-05-03T08:30:34;101875.31;;;10.95;55.68
46942;BME280;32676;52.630;4.896;2023-05-03T08:33:00;101885.81;;;10.97;55.70
46942;BME280;32676;52.630;4.896;2023-05-03T08:35:28;101900.63;;;11.02;55.59
46942;BME280;32676;52.630;4.896;2023-05-03T08:37:55;101955.66;;;11.14;55.48
46942;BME280;32676;52.630;4.896;2023-05-03T08:40:22;101981.88;;;11.21;55.29
46942;BME280;32676;52.630;4.896;2023-05-03T08:42:48;102020.38;;;11.28;54.61
46942;BME280;32676;52.630;4.896;2023-05-03T08:45:15;102046.56;;;11.34;54.72
46942;BME280;32676;52.630;4.896;2023-05-03T08:47:42;102102.50;;;11.48;54.65
46942;BME280;32676;52.630;4.896;2023-05-03T08:50:09;102121.72;;;11.53;54.47
46942;BME280;32676;52.630;4.896;2023-05-03T08:52:37;102173.28;;;11.67;54.33
46942;BME280;32676;52.630;4.896;2023-05-03T08:55:05;102210.94;;;11.75;54.13
46942;BME280;32676;52.630;4.896;2023-05-03T08:57:32;102243.28;;;11.83;53.55
46942;BME280;32676;52.630;4.896;2023-05-03T08:59:58;102322.06;;;12.00;53.63
46942;BME280;32676;52.630;4.896;2023-05-03T09:02:25;102380.69;;;12.16;53.02
46942;BME280;32676;52.630;4.896;2023-05-03T09:04:52;102336.09;;;12.02;52.04
46942;BME280;32676;52.630;4.896;2023-05-03T09:07:18;102314.19;;;11.99;51.76
46942;BME280;32676;52.630;4.896;2023-05-03T09:09:46;102306.31;;;11.97;52.03
46942;BME280;32676;52.630;4.896;2023-05-03T09:12:13;102259.91;;;11.85;51.72
46942;BME280;32676;52.630;4.896;2023-05-03T09:14:57;102340.47;;;12.05;52.37
46942;BME280;32676;52.630;4.896;2023-05-03T09:17:24;102400.88;;;12.19;52.41
46942;BME280;32676;52.630;4.896;2023-05-03T09:19:51;102480.53;;;12.41;52.00
46942;BME280;32676;52.630;4.896;2023-05-03T09:22:18;102577.78;;;12.62;51.87
46942;BME280;32676;52.630;4.896;2023-05-03T09:24:51;102671.63;;;12.85;52.00
46942;BME280;32676;52.630;4.896;2023-05-03T09:27:18;102731.25;;;12.98;51.93
46942;BME280;32676;52.630;4.896;2023-05-03T09:29:46;102735.66;;;12.99;51.91
46942;BME280;32676;52.630;4.896;2023-05-03T09:32:13;102757.59;;;13.04;51.39
46942;BME280;32676;52.630;4.896;2023-05-03T09:34:39;102740.91;;;13.02;51.37
46942;BME280;32676;52.630;4.896;2023-05-03T09:37:06;102722.50;;;12.96;51.20
46942;BME280;32676;52.630;4.896;2023-05-03T09:39:32;102678.63;;;12.86;50.64
46942;BME280;32676;52.630;4.896;2023-05-03T09:42:10;102722.50;;;12.96;50.74
46942;BME280;32676;52.630;4.896;2023-05-03T09:44:40;102754.09;;;13.02;50.60
46942;BME280;32676;52.630;4.896;2023-05-03T09:47:06;102790.03;;;13.13;50.86
46942;BME280;32676;52.630;4.896;2023-05-03T09:49:33;102813.75;;;13.19;50.82
46942;BME280;32676;52.630;4.896;2023-05-03T09:52:01;102815.47;;;13.20;50.18
46942;BME280;32676;52.630;4.896;2023-05-03T09:54:27;102792.69;;;13.13;50.63
46942;BME280;32676;52.630;4.896;2023-05-03T09:56:55;102718.97;;;12.97;50.65
46942;BME280;32676;52.630;4.896;2023-05-03T09:59:23;102659.38;;;12.81;50.84
46942;BME280;32676;52.630;4.896;2023-05-03T10:01:49;102625.19;;;12.72;50.84
46942;BME280;32676;52.630;4.896;2023-05-03T10:04:17;102663.72;;;12.82;50.93
46942;BME280;32676;52.630;4.896;2023-05-03T10:06:45;102616.38;;;12.71;50.84
46942;BME280;32676;52.630;4.896;2023-05-03T10:09:14;102685.66;;;12.87;50.83
46942;BME280;32676;52.630;4.896;2023-05-03T10:11:46;102687.44;;;12.88;51.45
46942;BME280;32676;52.630;4.896;2023-05-03T10:14:13;102689.16;;;12.89;51.13
46942;BME280;32676;52.630;4.896;2023-05-03T10:16:43;102647.06;;;12.80;50.93
46942;BME280;32676;52.630;4.896;2023-05-03T10:19:12;102610.25;;;12.71;50.77
46942;BME280;32676;52.630;4.896;2023-05-03T10:21:41;102626.03;;;12.74;50.69
46942;BME280;32676;52.630;4.896;2023-05-03T10:24:13;102673.34;;;12.86;51.45
46942;BME280;32676;52.630;4.896;2023-05-03T10:26:40;102696.19;;;12.90;51.10
46942;BME280;32676;52.630;4.896;2023-05-03T10:31:50;102754.03;;;13.05;51.18
46942;BME280;32676;52.630;4.896;2023-05-03T10:34:20;102713.72;;;12.96;50.72
46942;BME280;32676;52.630;4.896;2023-05-03T10:36:46;102736.50;;;13.01;50.67
46942;BME280;32676;52.630;4.896;2023-05-03T10:39:14;102754.03;;;13.05;50.54
46942;BME280;32676;52.630;4.896;2023-05-03T10:41:40;102772.47;;;13.10;50.68
46942;BME280;32676;52.630;4.896;2023-05-03T10:46:49;102785.66;;;13.12;51.23
46942;BME280;32676;52.630;4.896;2023-05-03T10:49:18;102749.69;;;13.03;51.21
46942;BME280;32676;52.630;4.896;2023-05-03T10:51:45;102729.50;;;12.99;50.76
46942;BME280;32676;52.630;4.896;2023-05-03T10:54:12;102717.22;;;12.96;50.66
46942;BME280;32676;52.630;4.896;2023-05-03T10:56:48;102741.78;;;13.01;50.70
46942;BME280;32676;52.630;4.896;2023-05-03T10:59:15;102742.66;;;13.02;50.34
46942;BME280;32676;52.630;4.896;2023-05-03T11:01:41;102797.94;;;13.16;51.10
46942;BME280;32676;52.630;4.896;2023-05-03T11:04:11;102803.22;;;13.16;51.14
46942;BME280;32676;52.630;4.896;2023-05-03T11:06:39;102849.72;;;13.28;50.65
46942;BME280;32676;52.630;4.896;2023-05-03T11:09:06;102866.41;;;13.31;49.94
46942;BME280;32676;52.630;4.896;2023-05-03T11:11:33;102811.97;;;13.21;49.38
46942;BME280;32676;52.630;4.896;2023-05-03T11:14:00;102790.91;;;13.13;49.34
46942;BME280;32676;52.630;4.896;2023-05-03T11:16:27;102773.34;;;13.11;49.40
46942;BME280;32676;52.630;4.896;2023-05-03T11:18:54;102810.19;;;13.20;50.27
46942;BME280;32676;52.630;4.896;2023-05-03T11:21:22;102840.91;;;13.27;50.72
46942;BME280;32676;52.630;4.896;2023-05-03T11:23:49;102869.06;;;13.31;50.69
46942;BME280;32676;52.630;4.896;2023-05-03T11:26:15;102851.47;;;13.30;50.52
46942;BME280;32676;52.630;4.896;2023-05-03T11:28:41;102880.44;;;13.36;50.13
46942;BME280;32676;52.630;4.896;2023-05-03T11:31:08;102907.69;;;13.43;50.32
46942;BME280;32676;52.630;4.896;2023-05-03T11:33:35;102886.59;;;13.38;50.05
46942;BME280;32676;52.630;4.896;2023-05-03T11:36:03;102848.81;;;13.30;49.01
46942;BME280;32676;52.630;4.896;2023-05-03T11:38:31;102800.53;;;13.19;48.81
46942;BME280;32676;52.630;4.896;2023-05-03T11:40:57;102794.38;;;13.17;49.20
46942;BME280;32676;52.630;4.896;2023-05-03T11:43:24;102817.25;;;13.21;49.56
46942;BME280;32676;52.630;4.896;2023-05-03T11:45:50;102847.97;;;13.28;50.28
46942;BME280;32676;52.630;4.896;2023-05-03T11:48:17;102892.72;;;13.40;50.30
46942;BME280;32676;52.630;4.896;2023-05-03T11:50:46;102867.25;;;13.35;50.42
46942;BME280;32676;52.630;4.896;2023-05-03T11:53:15;102884.84;;;13.37;50.35
46942;BME280;32676;52.630;4.896;2023-05-03T11:55:43;102908.53;;;13.45;50.93
46942;BME280;32676;52.630;4.896;2023-05-03T11:58:11;102967.38;;;13.58;51.87
46942;BME280;32676;52.630;4.896;2023-05-03T12:00:38;102992.88;;;13.62;51.41
46942;BME280;32676;52.630;4.896;2023-05-03T12:03:04;102975.31;;;13.58;50.53
46942;BME280;32676;52.630;4.896;2023-05-03T12:05:32;102989.34;;;13.63;50.47
46942;BME280;32676;52.630;4.896;2023-05-03T12:07:58;103040.31;;;13.74;51.29
46942;BME280;32676;52.630;4.896;2023-05-03T12:10:29;103072.84;;;13.82;51.24
46942;BME280;32676;52.630;4.896;2023-05-03T12:12:58;103103.56;;;13.90;50.86
46942;BME280;32676;52.630;4.896;2023-05-03T12:15:28;103131.69;;;13.97;50.78
46942;BME280;32676;52.630;4.896;2023-05-03T12:17:55;103091.28;;;13.89;49.81
46942;BME280;32676;52.630;4.896;2023-05-03T12:20:22;103075.47;;;13.82;49.51
46942;BME280;32676;52.630;4.896;2023-05-03T12:22:49;103068.44;;;13.81;50.03
46942;BME280;32676;52.630;4.896;2023-05-03T12:25:16;103063.16;;;13.81;50.03
46942;BME280;32676;52.630;4.896;2023-05-03T12:27:43;103026.25;;;13.72;49.01
46942;BME280;32676;52.630;4.896;2023-05-03T12:30:11;103021.84;;;13.71;49.56
46942;BME280;32676;52.630;4.896;2023-05-03T12:32:38;103009.53;;;13.70;49.30
46942;BME280;32676;52.630;4.896;2023-05-03T12:35:05;103008.69;;;13.68;48.92
46942;BME280;32676;52.630;4.896;2023-05-03T12:37:32;103002.53;;;13.66;49.00
46942;BME280;32676;52.630;4.896;2023-05-03T12:39:59;102997.28;;;13.65;48.69
46942;BME280;32676;52.630;4.896;2023-05-03T12:42:25;102967.38;;;13.58;48.62
46942;BME280;32676;52.630;4.896;2023-05-03T12:44:55;102958.59;;;13.57;49.49
46942;BME280;32676;52.630;4.896;2023-05-03T12:47:22;102930.50;;;13.50;49.37
46942;BME280;32676;52.630;4.896;2023-05-03T12:49:49;102948.06;;;13.54;49.94
46942;BME280;32676;52.630;4.896;2023-05-03T12:52:15;102975.28;;;13.61;49.94
46942;BME280;32676;52.630;4.896;2023-05-03T12:54:42;102996.34;;;13.67;50.09
46942;BME280;32676;52.630;4.896;2023-05-03T12:57:10;102982.31;;;13.62;50.10
46942;BME280;32676;52.630;4.896;2023-05-03T12:59:37;102955.97;;;13.56;49.49
46942;BME280;32676;52.630;4.896;2023-05-03T13:02:03;102949.81;;;13.55;50.51